createdAt,value
2017-07-27T00:00:14.335Z,0
2017-07-27T00:00:54.846Z,0
2017-07-27T00:01:35.366Z,0
2017-07-27T00:02:15.906Z,0
2017-07-27T00:02:56.410Z,0
2017-07-27T00:03:36.932Z,0
2017-07-27T00:04:17.462Z,0
2017-07-27T00:04:58.010Z,0
2017-07-27T00:05:38.521Z,0
2017-07-27T00:06:19.052Z,0
2017-07-27T00:06:59.582Z,0
2017-07-27T00:07:40.079Z,0
2017-07-27T00:08:20.592Z,0
2017-07-27T00:09:01.141Z,0
2017-07-27T00:09:41.610Z,0
2017-07-27T00:10:22.158Z,0
2017-07-27T00:11:02.676Z,0
2017-07-27T00:11:43.212Z,0
2017-07-27T00:12:23.689Z,0
2017-07-27T00:13:04.203Z,0
2017-07-27T00:13:44.741Z,0
2017-07-27T00:14:25.314Z,0
2017-07-27T00:15:05.826Z,0
2017-07-27T00:15:46.318Z,0
2017-07-27T00:16:26.855Z,0
2017-07-27T00:17:07.342Z,0
2017-07-27T00:17:47.881Z,0
2017-07-27T00:18:28.395Z,0
2017-07-27T00:19:08.912Z,0
2017-07-27T00:19:49.399Z,0
2017-07-27T00:20:29.898Z,0
2017-07-27T00:21:10.408Z,0
2017-07-27T00:21:50.897Z,0
2017-07-27T00:22:31.398Z,0
2017-07-27T00:23:11.904Z,0
2017-07-27T00:23:52.407Z,0
2017-07-27T00:24:32.957Z,0
2017-07-27T00:25:13.480Z,0
2017-07-27T00:25:53.970Z,0
2017-07-27T00:26:34.479Z,0
2017-07-27T00:27:14.992Z,0
2017-07-27T00:27:55.501Z,0
2017-07-27T00:28:35.978Z,0
2017-07-27T00:29:16.507Z,0
2017-07-27T00:29:57.024Z,0
2017-07-27T00:30:37.523Z,0
2017-07-27T00:31:17.999Z,0
2017-07-27T00:31:58.508Z,0
2017-07-27T00:32:39.013Z,0
2017-07-27T00:33:19.542Z,0
2017-07-27T00:34:00.041Z,0
2017-07-27T00:34:40.549Z,0
2017-07-27T00:35:21.084Z,0
2017-07-27T00:36:01.638Z,0
2017-07-27T00:36:42.177Z,0
2017-07-27T00:37:22.713Z,0
2017-07-27T00:38:03.263Z,0
2017-07-27T00:38:43.767Z,0
2017-07-27T00:39:24.295Z,0
2017-07-27T00:40:04.815Z,0
2017-07-27T00:40:45.369Z,0
2017-07-27T00:41:25.885Z,0
2017-07-27T00:42:06.391Z,0
2017-07-27T00:42:46.879Z,0
2017-07-27T00:43:27.370Z,0
2017-07-27T00:44:07.900Z,0
2017-07-27T00:44:48.427Z,0
2017-07-27T00:45:28.958Z,0
2017-07-27T00:46:09.470Z,0
2017-07-27T00:46:50.016Z,0
2017-07-27T00:47:30.520Z,0
2017-07-27T00:48:11.050Z,0
2017-07-27T00:48:51.571Z,0
2017-07-27T00:49:32.110Z,0
2017-07-27T00:50:12.581Z,0
2017-07-27T00:50:53.042Z,0
2017-07-27T00:51:33.601Z,0
2017-07-27T00:52:14.125Z,0
2017-07-27T00:52:54.623Z,0
2017-07-27T00:53:35.180Z,0
2017-07-27T00:54:15.682Z,0
2017-07-27T00:54:56.182Z,0
2017-07-27T00:55:36.688Z,0
2017-07-27T00:56:17.192Z,0
2017-07-27T00:56:57.744Z,0
2017-07-27T00:57:38.267Z,0
2017-07-27T00:58:18.799Z,0
2017-07-27T00:58:59.377Z,0
2017-07-27T00:59:39.861Z,0
2017-07-27T01:00:20.357Z,0
2017-07-27T01:01:00.897Z,0
2017-07-27T01:01:41.358Z,0
2017-07-27T01:02:21.858Z,0
2017-07-27T01:03:02.331Z,0
2017-07-27T01:03:42.814Z,0
2017-07-27T01:04:23.315Z,0
2017-07-27T01:05:03.824Z,0
2017-07-27T01:05:44.319Z,0
2017-07-27T01:06:24.841Z,0
2017-07-27T01:07:05.337Z,0
2017-07-27T01:07:45.833Z,0
2017-07-27T01:08:26.354Z,0
2017-07-27T01:09:06.868Z,0
2017-07-27T01:09:47.391Z,0
2017-07-27T01:10:27.923Z,0
2017-07-27T01:11:08.421Z,0
2017-07-27T01:11:48.933Z,0
2017-07-27T01:12:29.448Z,0
2017-07-27T01:13:10.000Z,0
2017-07-27T01:13:50.542Z,0
2017-07-27T01:14:31.086Z,0
2017-07-27T01:15:11.640Z,0
2017-07-27T01:15:52.153Z,0
2017-07-27T01:16:32.689Z,0
2017-07-27T01:17:13.183Z,0
2017-07-27T01:17:53.728Z,0
2017-07-27T01:18:34.251Z,0
2017-07-27T01:19:14.790Z,0
2017-07-27T01:19:55.305Z,0
2017-07-27T01:20:35.852Z,0
2017-07-27T01:21:16.379Z,0
2017-07-27T01:21:56.886Z,0
2017-07-27T01:22:37.387Z,0
2017-07-27T01:23:17.898Z,0
2017-07-27T01:23:58.393Z,0
2017-07-27T01:24:38.879Z,0
2017-07-27T01:25:19.417Z,0
2017-07-27T01:25:59.935Z,0
2017-07-27T01:26:40.436Z,0
2017-07-27T01:27:20.925Z,0
2017-07-27T01:28:01.462Z,0
2017-07-27T01:28:42.049Z,0
2017-07-27T01:29:22.541Z,0
2017-07-27T01:30:03.032Z,0
2017-07-27T01:30:43.575Z,0
2017-07-27T01:31:24.088Z,0
2017-07-27T01:32:04.612Z,0
2017-07-27T01:32:45.120Z,0
2017-07-27T01:33:25.658Z,0
2017-07-27T01:34:06.204Z,0
2017-07-27T01:34:46.702Z,0
2017-07-27T01:35:27.155Z,0
2017-07-27T01:36:07.673Z,0
2017-07-27T01:36:48.197Z,0
2017-07-27T01:37:28.728Z,0
2017-07-27T01:38:09.258Z,0
2017-07-27T01:38:49.783Z,0
2017-07-27T01:39:30.287Z,0
2017-07-27T01:40:10.795Z,0
2017-07-27T01:40:51.293Z,0
2017-07-27T01:41:33.524Z,0
2017-07-27T01:42:13.984Z,0
2017-07-27T01:42:54.471Z,0
2017-07-27T01:43:34.964Z,0
2017-07-27T01:44:15.446Z,0
2017-07-27T01:44:55.940Z,0
2017-07-27T01:45:36.433Z,0
2017-07-27T01:46:16.973Z,0
2017-07-27T01:46:57.454Z,0
2017-07-27T01:47:37.976Z,0
2017-07-27T01:48:18.496Z,0
2017-07-27T01:48:59.040Z,0
2017-07-27T01:49:39.556Z,0
2017-07-27T01:50:20.039Z,0
2017-07-27T01:51:00.552Z,0
2017-07-27T01:51:41.119Z,0
2017-07-27T01:52:21.636Z,0
2017-07-27T01:53:02.151Z,0
2017-07-27T01:53:42.631Z,0
2017-07-27T01:54:23.117Z,0
2017-07-27T01:55:03.636Z,0
2017-07-27T01:55:44.173Z,0
2017-07-27T01:56:24.698Z,0
2017-07-27T01:57:05.211Z,0
2017-07-27T01:57:45.741Z,0
2017-07-27T01:58:26.288Z,0
2017-07-27T01:59:06.821Z,0
2017-07-27T01:59:47.360Z,0
2017-07-27T02:00:27.913Z,0
2017-07-27T02:01:08.448Z,0
2017-07-27T02:01:48.965Z,0
2017-07-27T02:02:29.487Z,0
2017-07-27T02:03:10.016Z,0
2017-07-27T02:03:50.543Z,0
2017-07-27T02:04:31.069Z,0
2017-07-27T02:05:11.594Z,0
2017-07-27T02:05:52.119Z,0
2017-07-27T02:06:32.649Z,0
2017-07-27T02:07:13.215Z,0
2017-07-27T02:07:53.795Z,0
2017-07-27T02:08:34.372Z,0
2017-07-27T02:09:14.902Z,0
2017-07-27T02:09:55.434Z,0
2017-07-27T02:10:35.975Z,0
2017-07-27T02:11:16.460Z,0
2017-07-27T02:11:56.977Z,0
2017-07-27T02:12:37.511Z,0
2017-07-27T02:13:17.981Z,0
2017-07-27T02:13:58.523Z,0
2017-07-27T02:14:38.992Z,0
2017-07-27T02:15:19.563Z,0
2017-07-27T02:16:00.087Z,0
2017-07-27T02:16:40.626Z,0
2017-07-27T02:17:21.143Z,0
2017-07-27T02:18:01.674Z,0
2017-07-27T02:18:42.217Z,0
2017-07-27T02:19:22.735Z,0
2017-07-27T02:20:03.272Z,0
2017-07-27T02:20:43.747Z,0
2017-07-27T02:21:24.309Z,0
2017-07-27T02:22:04.823Z,0
2017-07-27T02:22:45.332Z,0
2017-07-27T02:23:25.861Z,0
2017-07-27T02:24:06.393Z,0
2017-07-27T02:24:46.896Z,0
2017-07-27T02:25:27.432Z,0
2017-07-27T02:26:07.946Z,0
2017-07-27T02:26:48.472Z,0
2017-07-27T02:27:29.049Z,0
2017-07-27T02:28:09.580Z,0
2017-07-27T02:28:50.149Z,0
2017-07-27T02:29:30.686Z,0
2017-07-27T02:30:11.209Z,0
2017-07-27T02:30:51.745Z,0
2017-07-27T02:31:32.231Z,0
2017-07-27T02:32:12.763Z,0
2017-07-27T02:32:53.313Z,0
2017-07-27T02:33:33.812Z,0
2017-07-27T02:34:14.351Z,0
2017-07-27T02:34:54.828Z,0
2017-07-27T02:35:35.351Z,0
2017-07-27T02:36:15.882Z,0
2017-07-27T02:36:56.383Z,0
2017-07-27T02:37:36.866Z,0
2017-07-27T02:38:17.381Z,0
2017-07-27T02:38:57.864Z,0
2017-07-27T02:39:38.352Z,0
2017-07-27T02:40:18.845Z,0
2017-07-27T02:40:59.382Z,0
2017-07-27T02:41:39.885Z,0
2017-07-27T02:42:20.406Z,0
2017-07-27T02:43:00.935Z,0
2017-07-27T02:43:41.569Z,0
2017-07-27T02:44:22.120Z,0
2017-07-27T02:45:02.628Z,0
2017-07-27T02:45:43.153Z,0
2017-07-27T02:46:23.748Z,0
2017-07-27T02:47:04.293Z,0
2017-07-27T02:47:44.760Z,0
2017-07-27T02:48:25.336Z,0
2017-07-27T02:49:05.919Z,0
2017-07-27T02:49:46.524Z,0
2017-07-27T02:50:26.973Z,0
2017-07-27T02:51:07.561Z,0
2017-07-27T02:51:48.164Z,0
2017-07-27T02:52:28.733Z,0
2017-07-27T02:53:09.585Z,0
2017-07-27T02:53:50.040Z,0
2017-07-27T02:54:30.634Z,0
2017-07-27T02:55:11.291Z,0
2017-07-27T02:55:51.861Z,0
2017-07-27T02:56:32.470Z,0
2017-07-27T02:57:13.095Z,0
2017-07-27T02:57:53.575Z,0
2017-07-27T02:58:34.490Z,0
2017-07-27T02:59:15.785Z,0
2017-07-27T02:59:57.137Z,0
2017-07-27T03:00:37.790Z,0
2017-07-27T03:01:18.554Z,0
2017-07-27T03:01:59.124Z,0
2017-07-27T03:02:40.269Z,0
2017-07-27T03:03:21.561Z,0
2017-07-27T03:04:02.780Z,0
2017-07-27T03:04:43.446Z,0
2017-07-27T03:05:24.571Z,0
2017-07-27T03:06:05.151Z,0
2017-07-27T03:06:46.970Z,0
2017-07-27T03:07:28.278Z,0
2017-07-27T03:08:10.338Z,0
2017-07-27T03:08:50.950Z,0
2017-07-27T03:09:32.414Z,0
2017-07-27T03:10:13.153Z,0
2017-07-27T03:10:53.842Z,0
2017-07-27T03:11:34.693Z,0
2017-07-27T03:12:16.476Z,0
2017-07-27T03:12:58.897Z,0
2017-07-27T03:13:40.499Z,0
2017-07-27T03:14:21.269Z,0
2017-07-27T03:15:01.929Z,0
2017-07-27T03:15:43.061Z,0
2017-07-27T03:16:23.760Z,0
2017-07-27T03:17:06.772Z,0
2017-07-27T03:17:48.887Z,0
2017-07-27T03:18:29.619Z,0
2017-07-27T03:19:10.673Z,0
2017-07-27T03:19:51.551Z,0
2017-07-27T03:20:33.330Z,0
2017-07-27T03:21:13.943Z,0
2017-07-27T03:21:55.245Z,0
2017-07-27T03:22:37.026Z,0
2017-07-27T03:23:18.780Z,0
2017-07-27T03:24:01.401Z,0
2017-07-27T03:24:43.469Z,0
2017-07-27T03:25:28.240Z,0
2017-07-27T03:26:11.545Z,0
2017-07-27T03:26:53.994Z,0
2017-07-27T03:27:36.635Z,0
2017-07-27T03:28:17.554Z,0
2017-07-27T03:29:02.366Z,0
2017-07-27T03:29:42.929Z,0
2017-07-27T03:30:25.250Z,0
2017-07-27T03:31:07.081Z,0
2017-07-27T03:31:47.871Z,0
2017-07-27T03:32:28.542Z,0
2017-07-27T03:33:09.193Z,0
2017-07-27T03:33:49.685Z,0
2017-07-27T03:34:30.255Z,0
2017-07-27T03:35:10.873Z,0
2017-07-27T03:35:51.411Z,0
2017-07-27T03:36:31.931Z,0
2017-07-27T03:37:12.432Z,0
2017-07-27T03:37:53.086Z,0
2017-07-27T03:38:33.633Z,0
2017-07-27T03:39:14.178Z,0
2017-07-27T03:39:54.719Z,0
2017-07-27T03:40:35.298Z,0
2017-07-27T03:41:15.833Z,0
2017-07-27T03:41:56.405Z,0
2017-07-27T03:42:36.988Z,0
2017-07-27T03:43:17.595Z,0
2017-07-27T03:43:58.180Z,0
2017-07-27T03:44:38.857Z,0
2017-07-27T03:45:19.601Z,0
2017-07-27T03:46:00.246Z,0
2017-07-27T03:46:40.954Z,0
2017-07-27T03:47:22.371Z,0
2017-07-27T03:48:03.026Z,0
2017-07-27T03:48:43.878Z,0
2017-07-27T03:49:24.748Z,0
2017-07-27T03:50:06.344Z,0
2017-07-27T03:50:47.030Z,0
2017-07-27T03:51:27.808Z,0
2017-07-27T03:52:08.411Z,0
2017-07-27T03:52:49.358Z,0
2017-07-27T03:53:30.243Z,0
2017-07-27T03:54:10.862Z,0
2017-07-27T03:54:51.385Z,0
2017-07-27T03:55:32.069Z,0
2017-07-27T03:56:12.679Z,0
2017-07-27T03:56:53.200Z,0
2017-07-27T03:57:33.802Z,0
2017-07-27T03:58:14.352Z,0
2017-07-27T03:58:54.885Z,0
2017-07-27T03:59:35.461Z,0
2017-07-27T04:00:15.977Z,0
2017-07-27T04:00:56.465Z,0
2017-07-27T04:01:37.007Z,0
2017-07-27T04:02:17.518Z,0
2017-07-27T04:02:58.039Z,0
2017-07-27T04:03:38.571Z,0
2017-07-27T04:04:19.098Z,0
2017-07-27T04:04:59.642Z,0
2017-07-27T04:05:40.176Z,0
2017-07-27T04:06:20.687Z,0
2017-07-27T04:07:01.210Z,0
2017-07-27T04:07:41.735Z,0
2017-07-27T04:08:22.253Z,0
2017-07-27T04:09:02.795Z,0
2017-07-27T04:09:43.383Z,0
2017-07-27T04:10:23.935Z,5
2017-07-27T04:11:04.496Z,5
2017-07-27T04:11:45.040Z,5
2017-07-27T04:12:25.579Z,5
2017-07-27T04:13:06.107Z,5
2017-07-27T04:13:46.631Z,5
2017-07-27T04:14:27.137Z,5
2017-07-27T04:15:07.642Z,5
2017-07-27T04:15:48.138Z,5
2017-07-27T04:16:28.629Z,5
2017-07-27T04:17:09.128Z,5
2017-07-27T04:17:49.659Z,5
2017-07-27T04:18:30.203Z,10
2017-07-27T04:19:10.825Z,10
2017-07-27T04:19:51.429Z,10
2017-07-27T04:20:32.019Z,10
2017-07-27T04:21:12.708Z,10
2017-07-27T04:21:53.191Z,15
2017-07-27T04:22:33.691Z,15
2017-07-27T04:23:14.226Z,15
2017-07-27T04:23:54.747Z,15
2017-07-27T04:24:35.479Z,20
2017-07-27T04:25:15.968Z,20
2017-07-27T04:25:56.483Z,20
2017-07-27T04:26:36.985Z,20
2017-07-27T04:27:17.487Z,25
2017-07-27T04:27:58.009Z,25
2017-07-27T04:28:38.511Z,25
2017-07-27T04:29:19.042Z,25
2017-07-27T04:29:59.559Z,30
2017-07-27T04:30:40.071Z,30
2017-07-27T04:31:20.622Z,30
2017-07-27T04:32:01.153Z,30
2017-07-27T04:32:41.695Z,25
2017-07-27T04:33:22.229Z,25
2017-07-27T04:34:02.770Z,20
2017-07-27T04:34:43.299Z,20
2017-07-27T04:35:23.829Z,15
2017-07-27T04:36:04.355Z,15
2017-07-27T04:36:44.866Z,15
2017-07-27T04:37:25.391Z,15
2017-07-27T04:38:05.926Z,10
2017-07-27T04:38:46.454Z,10
2017-07-27T04:39:26.998Z,5
2017-07-27T04:40:07.501Z,5
2017-07-27T04:40:48.030Z,5
2017-07-27T04:41:28.581Z,5
2017-07-27T04:42:09.106Z,5
2017-07-27T04:42:49.594Z,5
2017-07-27T04:43:30.114Z,5
2017-07-27T04:44:10.616Z,10
2017-07-27T04:44:51.113Z,15
2017-07-27T04:45:31.736Z,20
2017-07-27T04:46:12.290Z,20
2017-07-27T04:46:52.799Z,20
2017-07-27T04:47:33.334Z,20
2017-07-27T04:48:13.849Z,25
2017-07-27T04:48:54.368Z,25
2017-07-27T04:49:34.899Z,30
2017-07-27T04:50:15.414Z,30
2017-07-27T04:50:55.938Z,25
2017-07-27T04:51:36.476Z,25
2017-07-27T04:52:16.985Z,20
2017-07-27T04:52:57.526Z,20
2017-07-27T04:53:38.029Z,20
2017-07-27T04:54:18.568Z,25
2017-07-27T04:54:59.178Z,25
2017-07-27T04:55:39.720Z,25
2017-07-27T04:56:20.271Z,25
2017-07-27T04:57:00.937Z,25
2017-07-27T04:57:41.475Z,25
2017-07-27T04:58:22.146Z,25
2017-07-27T04:59:02.647Z,25
2017-07-27T04:59:43.147Z,25
2017-07-27T05:00:23.642Z,30
2017-07-27T05:01:04.170Z,35
2017-07-27T05:01:44.703Z,40
2017-07-27T05:02:25.173Z,45
2017-07-27T05:03:07.814Z,50
2017-07-27T05:03:53.319Z,50
2017-07-27T05:04:35.976Z,50
2017-07-27T05:05:16.228Z,50
2017-07-27T05:05:56.725Z,45
2017-07-27T05:06:37.240Z,45
2017-07-27T05:07:17.882Z,45
2017-07-27T05:07:58.340Z,50
2017-07-27T05:08:38.864Z,50
2017-07-27T05:09:19.374Z,50
2017-07-27T05:09:59.891Z,40
2017-07-27T05:10:40.394Z,40
2017-07-27T05:11:20.938Z,40
2017-07-27T05:12:01.515Z,40
2017-07-27T05:12:42.047Z,40
2017-07-27T05:13:22.602Z,40
2017-07-27T05:14:03.150Z,40
2017-07-27T05:14:43.676Z,45
2017-07-27T05:15:24.255Z,45
2017-07-27T05:16:04.797Z,45
2017-07-27T05:16:45.358Z,45
2017-07-27T05:17:25.956Z,45
2017-07-27T05:18:06.421Z,45
2017-07-27T05:18:46.954Z,45
2017-07-27T05:19:27.496Z,50
2017-07-27T05:20:08.063Z,55
2017-07-27T05:20:48.554Z,55
2017-07-27T05:21:29.070Z,60
2017-07-27T05:22:09.657Z,70
2017-07-27T05:22:50.113Z,75
2017-07-27T05:23:30.634Z,85
2017-07-27T05:24:11.187Z,80
2017-07-27T05:24:51.689Z,75
2017-07-27T05:25:32.244Z,75
2017-07-27T05:26:12.808Z,80
2017-07-27T05:26:53.372Z,80
2017-07-27T05:27:33.863Z,75
2017-07-27T05:28:14.377Z,85
2017-07-27T05:28:54.963Z,95
2017-07-27T05:29:35.507Z,115
2017-07-27T05:30:15.967Z,125
2017-07-27T05:30:56.597Z,115
2017-07-27T05:31:37.220Z,105
2017-07-27T05:32:18.604Z,100
2017-07-27T05:32:59.111Z,105
2017-07-27T05:33:39.590Z,115
2017-07-27T05:34:20.188Z,120
2017-07-27T05:35:00.648Z,125
2017-07-27T05:35:41.177Z,120
2017-07-27T05:36:21.736Z,115
2017-07-27T05:37:02.262Z,115
2017-07-27T05:37:42.845Z,120
2017-07-27T05:38:23.368Z,120
2017-07-27T05:39:04.217Z,120
2017-07-27T05:39:47.243Z,120
2017-07-27T05:40:27.685Z,120
2017-07-27T05:41:08.264Z,120
2017-07-27T05:41:48.746Z,120
2017-07-27T05:42:29.217Z,115
2017-07-27T05:43:09.853Z,120
2017-07-27T05:43:50.296Z,120
2017-07-27T05:44:30.834Z,125
2017-07-27T05:45:11.424Z,135
2017-07-27T05:45:51.990Z,145
2017-07-27T05:46:32.469Z,155
2017-07-27T05:47:12.958Z,160
2017-07-27T05:47:53.495Z,165
2017-07-27T05:48:35.507Z,165
2017-07-27T05:49:16.144Z,165
2017-07-27T05:49:56.630Z,160
2017-07-27T05:50:37.158Z,160
2017-07-27T05:51:17.724Z,155
2017-07-27T05:51:58.368Z,150
2017-07-27T05:52:38.817Z,145
2017-07-27T05:53:19.368Z,140
2017-07-27T05:53:59.906Z,135
2017-07-27T05:54:40.449Z,130
2017-07-27T05:55:22.682Z,135
2017-07-27T05:56:03.212Z,140
2017-07-27T05:56:43.718Z,145
2017-07-27T05:57:26.120Z,150
2017-07-27T05:58:06.662Z,150
2017-07-27T05:58:47.577Z,150
2017-07-27T05:59:28.485Z,145
2017-07-27T06:00:09.113Z,150
2017-07-27T06:00:49.627Z,155
2017-07-27T06:01:30.149Z,145
2017-07-27T06:02:10.665Z,140
2017-07-27T06:02:51.174Z,140
2017-07-27T06:03:31.706Z,145
2017-07-27T06:04:14.226Z,145
2017-07-27T06:04:54.757Z,155
2017-07-27T06:05:35.320Z,170
2017-07-27T06:06:15.852Z,185
2017-07-27T06:06:56.427Z,190
2017-07-27T06:07:36.984Z,190
2017-07-27T06:08:17.541Z,200
2017-07-27T06:08:58.217Z,185
2017-07-27T06:09:38.812Z,160
2017-07-27T06:10:19.377Z,160
2017-07-27T06:10:59.970Z,170
2017-07-27T06:11:40.521Z,170
2017-07-27T06:12:23.992Z,180
2017-07-27T06:13:04.700Z,170
2017-07-27T06:13:46.660Z,145
2017-07-27T06:14:30.924Z,130
2017-07-27T06:15:11.434Z,130
2017-07-27T06:15:52.146Z,135
2017-07-27T06:16:34.619Z,145
2017-07-27T06:17:15.148Z,165
2017-07-27T06:17:55.681Z,185
2017-07-27T06:18:36.212Z,200
2017-07-27T06:19:16.861Z,215
2017-07-27T06:19:57.330Z,215
2017-07-27T06:20:37.866Z,200
2017-07-27T06:21:18.410Z,185
2017-07-27T06:21:58.942Z,175
2017-07-27T06:22:39.441Z,170
2017-07-27T06:23:19.995Z,145
2017-07-27T06:24:01.377Z,115
2017-07-27T06:24:42.013Z,95
2017-07-27T06:25:22.555Z,90
2017-07-27T06:26:03.801Z,85
2017-07-27T06:26:44.337Z,85
2017-07-27T06:27:24.838Z,85
2017-07-27T06:28:05.373Z,90
2017-07-27T06:28:45.968Z,110
2017-07-27T06:29:26.487Z,130
2017-07-27T06:30:07.031Z,145
2017-07-27T06:30:47.557Z,150
2017-07-27T06:31:28.092Z,150
2017-07-27T06:32:08.613Z,155
2017-07-27T06:32:49.175Z,155
2017-07-27T06:33:29.689Z,150
2017-07-27T06:34:10.226Z,155
2017-07-27T06:36:39.842Z,170
2017-07-27T06:37:20.337Z,180
2017-07-27T06:38:00.841Z,185
2017-07-27T06:38:41.352Z,190
2017-07-27T06:39:21.854Z,195
2017-07-27T06:40:02.418Z,210
2017-07-27T06:40:42.918Z,220
2017-07-27T06:41:23.430Z,235
2017-07-27T06:42:03.946Z,250
2017-07-27T06:42:44.475Z,265
2017-07-27T06:43:25.017Z,270
2017-07-27T06:44:05.493Z,265
2017-07-27T06:44:45.997Z,260
2017-07-27T06:45:27.407Z,260
2017-07-27T06:46:07.905Z,260
2017-07-27T06:46:48.529Z,265
2017-07-27T06:47:29.054Z,275
2017-07-27T06:48:09.560Z,280
2017-07-27T06:48:50.071Z,290
2017-07-27T06:49:30.724Z,290
2017-07-27T06:50:11.580Z,290
2017-07-27T06:50:52.184Z,280
2017-07-27T06:51:32.839Z,275
2017-07-27T06:52:13.368Z,280
2017-07-27T06:52:53.918Z,275
2017-07-27T06:53:34.411Z,290
2017-07-27T06:54:15.152Z,305
2017-07-27T06:54:55.925Z,315
2017-07-27T06:55:36.462Z,325
2017-07-27T06:56:17.018Z,325
2017-07-27T06:56:57.590Z,325
2017-07-27T06:57:38.127Z,325
2017-07-27T06:58:18.567Z,315
2017-07-27T06:58:59.153Z,310
2017-07-27T06:59:39.668Z,305
2017-07-27T07:00:20.166Z,305
2017-07-27T07:01:00.701Z,300
2017-07-27T07:01:42.267Z,305
2017-07-27T07:02:22.780Z,305
2017-07-27T07:03:03.542Z,305
2017-07-27T07:03:44.072Z,310
2017-07-27T07:04:24.624Z,310
2017-07-27T07:05:05.131Z,310
2017-07-27T07:05:45.624Z,310
2017-07-27T07:06:26.122Z,300
2017-07-27T07:07:06.750Z,275
2017-07-27T07:07:47.314Z,235
2017-07-27T07:08:28.374Z,215
2017-07-27T07:09:09.037Z,200
2017-07-27T07:09:49.622Z,185
2017-07-27T07:10:30.258Z,190
2017-07-27T07:11:10.716Z,200
2017-07-27T07:11:51.259Z,225
2017-07-27T07:12:32.476Z,245
2017-07-27T07:13:13.096Z,265
2017-07-27T07:13:53.578Z,265
2017-07-27T07:14:34.091Z,275
2017-07-27T07:15:14.640Z,280
2017-07-27T07:15:55.158Z,280
2017-07-27T07:16:36.038Z,290
2017-07-27T07:17:16.871Z,285
2017-07-27T07:17:57.364Z,300
2017-07-27T07:18:37.994Z,300
2017-07-27T07:19:18.674Z,310
2017-07-27T07:19:59.494Z,325
2017-07-27T07:20:40.221Z,355
2017-07-27T07:21:20.820Z,365
2017-07-27T07:22:02.808Z,370
2017-07-27T07:22:43.328Z,375
2017-07-27T07:23:24.044Z,385
2017-07-27T07:24:04.634Z,375
2017-07-27T07:24:45.275Z,345
2017-07-27T07:25:25.773Z,280
2017-07-27T07:26:06.368Z,270
2017-07-27T07:26:46.934Z,245
2017-07-27T07:27:27.506Z,235
2017-07-27T07:28:07.996Z,230
2017-07-27T07:28:48.508Z,240
2017-07-27T07:29:29.100Z,270
2017-07-27T07:30:09.528Z,295
2017-07-27T07:30:50.104Z,295
2017-07-27T07:31:30.628Z,280
2017-07-27T07:32:11.167Z,345
2017-07-27T07:32:51.682Z,255
2017-07-27T07:33:32.566Z,185
2017-07-27T07:34:13.039Z,185
2017-07-27T07:34:53.579Z,195
2017-07-27T07:35:34.117Z,225
2017-07-27T07:36:14.692Z,245
2017-07-27T07:36:55.200Z,220
2017-07-27T07:37:35.731Z,180
2017-07-27T07:38:16.269Z,150
2017-07-27T07:38:56.822Z,120
2017-07-27T07:39:37.297Z,110
2017-07-27T07:40:17.940Z,130
2017-07-27T07:40:58.513Z,170
2017-07-27T07:41:39.190Z,200
2017-07-27T07:42:19.960Z,225
2017-07-27T07:43:00.832Z,235
2017-07-27T07:43:41.089Z,240
2017-07-27T07:44:21.620Z,230
2017-07-27T07:45:02.289Z,195
2017-07-27T07:45:42.784Z,165
2017-07-27T07:46:23.291Z,135
2017-07-27T07:47:03.906Z,95
2017-07-27T07:47:44.454Z,70
2017-07-27T07:48:25.047Z,50
2017-07-27T07:49:05.804Z,35
2017-07-27T07:49:46.201Z,30
2017-07-27T07:50:26.860Z,25
2017-07-27T07:51:07.393Z,25
2017-07-27T07:51:48.237Z,25
2017-07-27T07:52:28.742Z,30
2017-07-27T07:53:09.348Z,45
2017-07-27T07:53:50.012Z,70
2017-07-27T07:54:30.579Z,100
2017-07-27T07:55:11.230Z,120
2017-07-27T07:55:51.989Z,150
2017-07-27T07:56:32.718Z,165
2017-07-27T07:57:13.300Z,155
2017-07-27T07:57:53.871Z,135
2017-07-27T07:58:34.451Z,120
2017-07-27T07:59:15.081Z,110
2017-07-27T07:59:55.622Z,100
2017-07-27T08:00:36.109Z,85
2017-07-27T08:01:16.669Z,85
2017-07-27T08:01:57.331Z,85
2017-07-27T08:02:37.840Z,85
2017-07-27T08:03:18.300Z,85
2017-07-27T08:03:58.917Z,85
2017-07-27T08:04:39.415Z,85
2017-07-27T08:05:19.928Z,75
2017-07-27T08:06:00.789Z,75
2017-07-27T08:06:41.788Z,80
2017-07-27T08:07:22.439Z,95
2017-07-27T08:08:03.844Z,120
2017-07-27T08:08:44.588Z,140
2017-07-27T08:09:25.086Z,145
2017-07-27T08:10:05.610Z,130
2017-07-27T08:10:46.260Z,120
2017-07-27T08:11:26.831Z,105
2017-07-27T08:12:07.548Z,95
2017-07-27T08:12:48.320Z,90
2017-07-27T08:13:28.630Z,80
2017-07-27T08:14:09.132Z,80
2017-07-27T08:14:49.836Z,80
2017-07-27T08:15:30.380Z,80
2017-07-27T08:16:10.946Z,75
2017-07-27T08:16:51.664Z,70
2017-07-27T08:17:32.246Z,75
2017-07-27T08:18:12.864Z,80
2017-07-27T08:18:53.385Z,75
2017-07-27T08:19:34.118Z,80
2017-07-27T08:20:14.721Z,90
2017-07-27T08:20:55.265Z,110
2017-07-27T08:21:35.800Z,125
2017-07-27T08:22:16.421Z,135
2017-07-27T08:22:57.056Z,140
2017-07-27T08:23:37.688Z,135
2017-07-27T08:24:18.191Z,115
2017-07-27T08:24:58.774Z,110
2017-07-27T08:25:40.364Z,110
2017-07-27T08:26:20.864Z,110
2017-07-27T08:27:01.648Z,110
2017-07-27T08:27:41.905Z,105
2017-07-27T08:28:22.518Z,105
2017-07-27T08:29:03.001Z,110
2017-07-27T08:29:43.788Z,110
2017-07-27T08:30:24.366Z,110
2017-07-27T08:31:04.918Z,105
2017-07-27T08:31:45.425Z,95
2017-07-27T08:32:26.111Z,90
2017-07-27T08:33:06.672Z,85
2017-07-27T08:33:47.210Z,95
2017-07-27T08:34:27.715Z,100
2017-07-27T08:35:08.308Z,100
2017-07-27T08:35:48.931Z,95
2017-07-27T08:36:29.512Z,90
2017-07-27T08:37:10.107Z,85
2017-07-27T08:37:50.661Z,95
2017-07-27T08:38:31.199Z,90
2017-07-27T08:39:11.825Z,85
2017-07-27T08:39:52.409Z,85
2017-07-27T08:40:32.975Z,85
2017-07-27T08:41:13.505Z,100
2017-07-27T08:41:54.154Z,105
2017-07-27T08:42:34.715Z,115
2017-07-27T08:43:15.256Z,130
2017-07-27T08:43:55.845Z,130
2017-07-27T08:44:36.388Z,140
2017-07-27T08:45:16.922Z,135
2017-07-27T08:45:57.434Z,150
2017-07-27T08:46:37.961Z,165
2017-07-27T08:47:18.491Z,185
2017-07-27T08:47:59.005Z,205
2017-07-27T08:48:39.541Z,210
2017-07-27T08:49:20.062Z,225
2017-07-27T08:50:00.560Z,230
2017-07-27T08:50:41.089Z,200
2017-07-27T08:51:21.646Z,205
2017-07-27T08:52:02.170Z,215
2017-07-27T08:52:42.713Z,240
2017-07-27T08:53:23.210Z,250
2017-07-27T08:54:03.744Z,255
2017-07-27T08:54:44.270Z,275
2017-07-27T08:55:24.761Z,290
2017-07-27T08:56:05.330Z,295
2017-07-27T08:56:45.863Z,300
2017-07-27T08:57:26.445Z,295
2017-07-27T08:58:06.971Z,285
2017-07-27T08:58:47.508Z,275
2017-07-27T08:59:28.004Z,245
2017-07-27T09:00:08.531Z,255
2017-07-27T09:00:53.949Z,295
2017-07-27T09:01:34.469Z,325
2017-07-27T09:02:14.984Z,360
2017-07-27T09:02:55.505Z,385
2017-07-27T09:03:36.013Z,370
2017-07-27T09:04:16.538Z,345
2017-07-27T09:04:57.083Z,340
2017-07-27T09:05:37.608Z,345
2017-07-27T09:06:18.977Z,320
2017-07-27T09:06:59.586Z,305
2017-07-27T09:07:40.112Z,305
2017-07-27T09:08:21.112Z,300
2017-07-27T09:09:01.295Z,285
2017-07-27T09:09:41.857Z,295
2017-07-27T09:10:22.392Z,305
2017-07-27T09:11:02.932Z,315
2017-07-27T09:11:43.449Z,345
2017-07-27T09:12:23.944Z,350
2017-07-27T09:13:05.344Z,335
2017-07-27T09:13:46.032Z,360
2017-07-27T09:14:26.549Z,395
2017-07-27T09:15:07.089Z,405
2017-07-27T09:15:47.653Z,380
2017-07-27T09:16:28.168Z,365
2017-07-27T09:17:08.696Z,365
2017-07-27T09:17:49.196Z,415
2017-07-27T09:18:29.708Z,425
2017-07-27T09:19:10.365Z,400
2017-07-27T09:19:50.871Z,325
2017-07-27T09:20:31.379Z,300
2017-07-27T09:21:12.873Z,330
2017-07-27T09:21:53.482Z,430
2017-07-27T09:22:33.943Z,405
2017-07-27T09:23:14.492Z,390
2017-07-27T09:23:55.024Z,345
2017-07-27T09:24:35.546Z,335
2017-07-27T09:25:17.629Z,390
2017-07-27T09:25:58.117Z,430
2017-07-27T09:26:38.645Z,590
2017-07-27T09:27:19.135Z,885
2017-07-27T09:27:59.660Z,845
2017-07-27T09:28:40.175Z,935
2017-07-27T09:29:20.766Z,1470
2017-07-27T09:30:01.325Z,1690
2017-07-27T09:30:41.832Z,1135
2017-07-27T09:31:22.344Z,855
2017-07-27T09:32:02.884Z,890
2017-07-27T09:32:44.354Z,980
2017-07-27T09:33:24.896Z,990
2017-07-27T09:34:05.441Z,940
2017-07-27T09:34:46.044Z,1000
2017-07-27T09:35:26.566Z,990
2017-07-27T09:36:07.121Z,920
2017-07-27T09:36:47.612Z,935
2017-07-27T09:37:28.295Z,1025
2017-07-27T09:38:08.810Z,955
2017-07-27T09:38:49.332Z,1090
2017-07-27T09:39:29.944Z,775
2017-07-27T09:40:10.459Z,735
2017-07-27T09:40:51.018Z,650
2017-07-27T09:41:31.543Z,550
2017-07-27T09:42:12.021Z,455
2017-07-27T09:42:52.575Z,410